Lontzen, Belgium
Current Conditions -  °F | °C
As of 11:25 PM on Saturday 25 Oct 2014 (Local Time) from EBLB Reporting Station
Overcast Overcast  
Wind Chill:   Ceiling: 100
Heat Index:   Visibility: 0.03mi
Dew Point:   Wind: 2mph
Humidity: 93%   Direction: NA
Pressure: 30.24"   Gusts: NA
Location:  50.68°N, 6.01°E
Report Text: EBLB 252125Z AUTO VRB02KT 0050 VV001/// 08/07 Q1024 RED
Loading
Personal Weather Stations






























Interactive Weather Map
Tropical Storm Tracking
New forecast layout! Learn more

10-Day Weather Forecast

Advertisements
Track Severe Weather on mobile